sensor_id;sensor_type;location;lat;lon;timestamp;temperature;humidity
2174;DHT22;1093;51.424;11.764;2022-09-09T00:02:13;15.00;1.40
2174;DHT22;1093;51.424;11.764;2022-09-09T00:04:53;15.00;1.40
2174;DHT22;1093;51.424;11.764;2022-09-09T00:07:26;14.90;1.40
2174;DHT22;1093;51.424;11.764;2022-09-09T00:10:03;14.90;1.40
2174;DHT22;1093;51.424;11.764;2022-09-09T00:12:38;14.90;1.40
2174;DHT22;1093;51.424;11.764;2022-09-09T00:15:11;14.90;1.40
2174;DHT22;1093;51.424;11.764;2022-09-09T00:17:45;14.80;1.40
2174;DHT22;1093;51.424;11.764;2022-09-09T00:20:18;14.80;1.40
2174;DHT22;1093;51.424;11.764;2022-09-09T00:22:54;14.80;1.40
2174;DHT22;1093;51.424;11.764;2022-09-09T00:25:31;14.80;1.40
2174;DHT22;1093;51.424;11.764;2022-09-09T00:28:04;14.80;1.40
2174;DHT22;1093;51.424;11.764;2022-09-09T00:30:38;14.70;1.40
2174;DHT22;1093;51.424;11.764;2022-09-09T00:33:10;14.70;1.40
2174;DHT22;1093;51.424;11.764;2022-09-09T00:35:44;14.70;1.40
2174;DHT22;1093;51.424;11.764;2022-09-09T00:38:14;14.70;1.40
2174;DHT22;1093;51.424;11.764;2022-09-09T00:40:49;14.70;1.40
2174;DHT22;1093;51.424;11.764;2022-09-09T00:43:26;14.70;1.40
2174;DHT22;1093;51.424;11.764;2022-09-09T00:46:28;14.60;1.40
2174;DHT22;1093;51.424;11.764;2022-09-09T00:49:05;14.60;1.40
2174;DHT22;1093;51.424;11.764;2022-09-09T00:51:46;14.60;1.40
2174;DHT22;1093;51.424;11.764;2022-09-09T00:54:30;14.50;1.40
2174;DHT22;1093;51.424;11.764;2022-09-09T00:57:12;14.50;1.40
2174;DHT22;1093;51.424;11.764;2022-09-09T00:59:46;14.50;1.40
2174;DHT22;1093;51.424;11.764;2022-09-09T01:09:02;14.40;1.40
2174;DHT22;1093;51.424;11.764;2022-09-09T01:11:36;14.30;1.40
2174;DHT22;1093;51.424;11.764;2022-09-09T01:14:16;14.30;1.40
2174;DHT22;1093;51.424;11.764;2022-09-09T01:16:47;14.30;1.40
2174;DHT22;1093;51.424;11.764;2022-09-09T01:19:20;14.30;1.40
2174;DHT22;1093;51.424;11.764;2022-09-09T01:21:59;14.30;1.40
2174;DHT22;1093;51.424;11.764;2022-09-09T01:24:35;14.30;1.40
2174;DHT22;1093;51.424;11.764;2022-09-09T01:27:07;14.20;1.40
2174;DHT22;1093;51.424;11.764;2022-09-09T01:29:34;14.20;1.40
2174;DHT22;1093;51.424;11.764;2022-09-09T01:34:45;14.20;1.40
2174;DHT22;1093;51.424;11.764;2022-09-09T01:37:13;14.30;1.40
2174;DHT22;1093;51.424;11.764;2022-09-09T01:39:43;14.30;1.40
2174;DHT22;1093;51.424;11.764;2022-09-09T01:42:15;14.20;1.40
2174;DHT22;1093;51.424;11.764;2022-09-09T01:44:43;14.20;1.40
2174;DHT22;1093;51.424;11.764;2022-09-09T01:47:10;14.20;1.40
2174;DHT22;1093;51.424;11.764;2022-09-09T01:49:37;14.20;1.40
2174;DHT22;1093;51.424;11.764;2022-09-09T01:52:04;14.10;1.40
2174;DHT22;1093;51.424;11.764;2022-09-09T01:54:33;14.10;1.40
2174;DHT22;1093;51.424;11.764;2022-09-09T01:57:08;14.10;1.40
2174;DHT22;1093;51.424;11.764;2022-09-09T01:59:48;14.10;1.40
2174;DHT22;1093;51.424;11.764;2022-09-09T02:02:19;14.10;1.40
2174;DHT22;1093;51.424;11.764;2022-09-09T02:04:48;14.00;1.40
2174;DHT22;1093;51.424;11.764;2022-09-09T02:07:29;14.00;1.40
2174;DHT22;1093;51.424;11.764;2022-09-09T02:10:01;14.00;1.40
2174;DHT22;1093;51.424;11.764;2022-09-09T02:12:29;14.00;1.40
2174;DHT22;1093;51.424;11.764;2022-09-09T02:15:03;14.00;1.40
2174;DHT22;1093;51.424;11.764;2022-09-09T02:17:35;14.00;1.40
2174;DHT22;1093;51.424;11.764;2022-09-09T02:20:06;13.90;1.40
2174;DHT22;1093;51.424;11.764;2022-09-09T02:22:35;13.90;1.40
2174;DHT22;1093;51.424;11.764;2022-09-09T02:25:08;14.00;1.40
2174;DHT22;1093;51.424;11.764;2022-09-09T02:27:36;13.90;1.40
2174;DHT22;1093;51.424;11.764;2022-09-09T02:30:05;13.90;1.40
2174;DHT22;1093;51.424;11.764;2022-09-09T02:32:34;13.90;1.40
2174;DHT22;1093;51.424;11.764;2022-09-09T02:35:06;13.90;1.40
2174;DHT22;1093;51.424;11.764;2022-09-09T02:37:39;13.80;1.40
2174;DHT22;1093;51.424;11.764;2022-09-09T02:40:10;13.80;1.40
2174;DHT22;1093;51.424;11.764;2022-09-09T02:42:40;13.80;1.40
2174;DHT22;1093;51.424;11.764;2022-09-09T02:45:11;13.80;1.40
2174;DHT22;1093;51.424;11.764;2022-09-09T02:47:42;13.80;1.40
2174;DHT22;1093;51.424;11.764;2022-09-09T02:50:16;13.80;1.40
2174;DHT22;1093;51.424;11.764;2022-09-09T02:52:59;13.70;1.40
2174;DHT22;1093;51.424;11.764;2022-09-09T02:55:37;13.70;1.40
2174;DHT22;1093;51.424;11.764;2022-09-09T02:58:06;13.70;1.40
2174;DHT22;1093;51.424;11.764;2022-09-09T03:00:39;13.70;1.40
2174;DHT22;1093;51.424;11.764;2022-09-09T03:03:07;13.70;1.40
2174;DHT22;1093;51.424;11.764;2022-09-09T03:05:34;13.70;1.40
2174;DHT22;1093;51.424;11.764;2022-09-09T03:08:02;13.70;1.40
2174;DHT22;1093;51.424;11.764;2022-09-09T03:10:31;13.60;1.40
2174;DHT22;1093;51.424;11.764;2022-09-09T03:12:58;13.60;1.40
2174;DHT22;1093;51.424;11.764;2022-09-09T03:15:25;13.60;1.40
2174;DHT22;1093;51.424;11.764;2022-09-09T03:17:56;13.60;1.40
2174;DHT22;1093;51.424;11.764;2022-09-09T03:20:23;13.60;1.40
2174;DHT22;1093;51.424;11.764;2022-09-09T03:22:51;13.60;1.40
2174;DHT22;1093;51.424;11.764;2022-09-09T03:25:18;13.60;1.40
2174;DHT22;1093;51.424;11.764;2022-09-09T03:27:45;13.60;1.40
2174;DHT22;1093;51.424;11.764;2022-09-09T03:30:12;13.60;1.40
2174;DHT22;1093;51.424;11.764;2022-09-09T03:32:41;13.60;1.40
2174;DHT22;1093;51.424;11.764;2022-09-09T03:35:10;13.60;1.40
2174;DHT22;1093;51.424;11.764;2022-09-09T03:37:36;13.60;1.40
2174;DHT22;1093;51.424;11.764;2022-09-09T03:40:05;13.70;1.40
2174;DHT22;1093;51.424;11.764;2022-09-09T03:42:32;13.70;1.40
2174;DHT22;1093;51.424;11.764;2022-09-09T03:44:59;13.60;1.40
2174;DHT22;1093;51.424;11.764;2022-09-09T03:47:25;13.70;1.40
2174;DHT22;1093;51.424;11.764;2022-09-09T03:49:52;13.70;1.40
2174;DHT22;1093;51.424;11.764;2022-09-09T03:52:20;13.60;1.40
2174;DHT22;1093;51.424;11.764;2022-09-09T03:54:50;13.60;1.40
2174;DHT22;1093;51.424;11.764;2022-09-09T03:57:18;13.60;1.40
2174;DHT22;1093;51.424;11.764;2022-09-09T03:59:45;13.60;1.40
2174;DHT22;1093;51.424;11.764;2022-09-09T04:02:11;13.60;1.40
2174;DHT22;1093;51.424;11.764;2022-09-09T04:04:38;13.60;1.40
2174;DHT22;1093;51.424;11.764;2022-09-09T04:07:05;13.60;1.40
2174;DHT22;1093;51.424;11.764;2022-09-09T04:09:34;13.60;1.40
2174;DHT22;1093;51.424;11.764;2022-09-09T04:12:01;13.60;1.40
2174;DHT22;1093;51.424;11.764;2022-09-09T04:14:28;13.60;1.40
2174;DHT22;1093;51.424;11.764;2022-09-09T04:16:55;13.70;1.40
2174;DHT22;1093;51.424;11.764;2022-09-09T04:19:23;13.70;1.40
2174;DHT22;1093;51.424;11.764;2022-09-09T04:21:51;13.70;1.40
2174;DHT22;1093;51.424;11.764;2022-09-09T04:24:18;13.70;1.40
2174;DHT22;1093;51.424;11.764;2022-09-09T04:26:47;13.70;1.40
2174;DHT22;1093;51.424;11.764;2022-09-09T04:29:14;13.70;1.40
2174;DHT22;1093;51.424;11.764;2022-09-09T04:31:41;13.80;1.40
2174;DHT22;1093;51.424;11.764;2022-09-09T04:34:08;13.80;1.40
2174;DHT22;1093;51.424;11.764;2022-09-09T04:36:35;13.90;1.40
2174;DHT22;1093;51.424;11.764;2022-09-09T04:39:02;14.00;1.40
2174;DHT22;1093;51.424;11.764;2022-09-09T04:41:28;14.00;1.40
2174;DHT22;1093;51.424;11.764;2022-09-09T04:43:58;14.10;1.40
2174;DHT22;1093;51.424;11.764;2022-09-09T04:46:26;14.10;1.40
2174;DHT22;1093;51.424;11.764;2022-09-09T04:48:53;14.20;1.40
2174;DHT22;1093;51.424;11.764;2022-09-09T04:51:20;14.20;1.40
2174;DHT22;1093;51.424;11.764;2022-09-09T04:53:46;14.30;1.40
2174;DHT22;1093;51.424;11.764;2022-09-09T04:56:16;14.30;1.40
2174;DHT22;1093;51.424;11.764;2022-09-09T04:58:44;14.30;1.40
2174;DHT22;1093;51.424;11.764;2022-09-09T05:01:14;14.30;1.40
2174;DHT22;1093;51.424;11.764;2022-09-09T05:03:42;14.40;1.40
2174;DHT22;1093;51.424;11.764;2022-09-09T05:06:12;14.30;1.40
2174;DHT22;1093;51.424;11.764;2022-09-09T05:08:41;14.40;1.40
2174;DHT22;1093;51.424;11.764;2022-09-09T05:11:14;14.40;1.40
2174;DHT22;1093;51.424;11.764;2022-09-09T05:13:41;14.40;1.40
2174;DHT22;1093;51.424;11.764;2022-09-09T05:16:08;14.40;1.40
2174;DHT22;1093;51.424;11.764;2022-09-09T05:18:38;14.40;1.40
2174;DHT22;1093;51.424;11.764;2022-09-09T05:21:04;14.40;1.40
2174;DHT22;1093;51.424;11.764;2022-09-09T05:23:31;14.40;1.40
2174;DHT22;1093;51.424;11.764;2022-09-09T05:26:00;14.50;1.40
2174;DHT22;1093;51.424;11.764;2022-09-09T05:28:27;14.60;1.40
2174;DHT22;1093;51.424;11.764;2022-09-09T05:30:58;14.70;1.40
2174;DHT22;1093;51.424;11.764;2022-09-09T05:33:26;14.80;1.40
2174;DHT22;1093;51.424;11.764;2022-09-09T05:35:58;14.80;1.40
2174;DHT22;1093;51.424;11.764;2022-09-09T05:38:25;14.90;1.40
2174;DHT22;1093;51.424;11.764;2022-09-09T05:40:52;14.90;1.40
2174;DHT22;1093;51.424;11.764;2022-09-09T05:43:19;15.00;1.40
2174;DHT22;1093;51.424;11.764;2022-09-09T05:45:46;15.10;1.40
2174;DHT22;1093;51.424;11.764;2022-09-09T05:48:13;15.10;1.40
2174;DHT22;1093;51.424;11.764;2022-09-09T05:50:41;15.10;1.40
2174;DHT22;1093;51.424;11.764;2022-09-09T05:53:09;15.10;1.40
2174;DHT22;1093;51.424;11.764;2022-09-09T05:55:36;15.10;1.40
2174;DHT22;1093;51.424;11.764;2022-09-09T05:58:03;15.10;1.40
2174;DHT22;1093;51.424;11.764;2022-09-09T06:00:30;15.20;1.40
2174;DHT22;1093;51.424;11.764;2022-09-09T06:02:57;15.20;1.40
2174;DHT22;1093;51.424;11.764;2022-09-09T06:05:24;15.20;1.40
2174;DHT22;1093;51.424;11.764;2022-09-09T06:07:53;15.20;1.40
2174;DHT22;1093;51.424;11.764;2022-09-09T06:10:22;15.30;1.40
2174;DHT22;1093;51.424;11.764;2022-09-09T06:12:51;15.30;1.40
2174;DHT22;1093;51.424;11.764;2022-09-09T06:15:18;15.30;1.40
2174;DHT22;1093;51.424;11.764;2022-09-09T06:17:45;15.40;1.40
2174;DHT22;1093;51.424;11.764;2022-09-09T06:20:12;15.40;1.40
2174;DHT22;1093;51.424;11.764;2022-09-09T06:22:39;15.50;1.40
2174;DHT22;1093;51.424;11.764;2022-09-09T06:25:08;15.50;1.40
2174;DHT22;1093;51.424;11.764;2022-09-09T06:27:37;15.50;1.40
2174;DHT22;1093;51.424;11.764;2022-09-09T06:30:05;15.50;1.40
2174;DHT22;1093;51.424;11.764;2022-09-09T06:32:33;15.50;1.40
2174;DHT22;1093;51.424;11.764;2022-09-09T06:35:00;15.60;1.40
2174;DHT22;1093;51.424;11.764;2022-09-09T06:37:28;15.60;1.40
2174;DHT22;1093;51.424;11.764;2022-09-09T06:39:54;15.60;1.40
2174;DHT22;1093;51.424;11.764;2022-09-09T06:42:21;15.70;1.40
2174;DHT22;1093;51.424;11.764;2022-09-09T06:44:50;15.70;1.40
2174;DHT22;1093;51.424;11.764;2022-09-09T06:47:17;15.80;1.40
2174;DHT22;1093;51.424;11.764;2022-09-09T06:49:44;15.90;1.40
2174;DHT22;1093;51.424;11.764;2022-09-09T06:52:11;16.00;1.40
2174;DHT22;1093;51.424;11.764;2022-09-09T06:54:38;16.10;1.40
2174;DHT22;1093;51.424;11.764;2022-09-09T06:57:05;16.20;1.40
2174;DHT22;1093;51.424;11.764;2022-09-09T06:59:33;16.30;1.40
2174;DHT22;1093;51.424;11.764;2022-09-09T07:02:01;16.40;1.40
2174;DHT22;1093;51.424;11.764;2022-09-09T07:04:28;16.50;1.40
2174;DHT22;1093;51.424;11.764;2022-09-09T07:06:55;16.60;1.40
2174;DHT22;1093;51.424;11.764;2022-09-09T07:09:22;16.60;1.40
2174;DHT22;1093;51.424;11.764;2022-09-09T07:11:51;16.70;1.40
2174;DHT22;1093;51.424;11.764;2022-09-09T07:14:18;16.70;1.40
2174;DHT22;1093;51.424;11.764;2022-09-09T07:16:45;16.80;1.40
2174;DHT22;1093;51.424;11.764;2022-09-09T07:19:14;16.90;1.40
2174;DHT22;1093;51.424;11.764;2022-09-09T07:21:42;16.90;1.40
2174;DHT22;1093;51.424;11.764;2022-09-09T07:24:10;17.00;1.40
2174;DHT22;1093;51.424;11.764;2022-09-09T07:26:37;17.00;1.40
2174;DHT22;1093;51.424;11.764;2022-09-09T07:29:04;17.10;1.40
2174;DHT22;1093;51.424;11.764;2022-09-09T07:31:33;17.20;1.40
2174;DHT22;1093;51.424;11.764;2022-09-09T07:34:01;17.30;1.40
2174;DHT22;1093;51.424;11.764;2022-09-09T07:36:31;17.40;1.40
2174;DHT22;1093;51.424;11.764;2022-09-09T07:38:59;17.40;1.40
2174;DHT22;1093;51.424;11.764;2022-09-09T07:41:28;17.50;1.40
2174;DHT22;1093;51.424;11.764;2022-09-09T07:43:57;17.60;1.40
2174;DHT22;1093;51.424;11.764;2022-09-09T07:46:26;17.70;1.40
2174;DHT22;1093;51.424;11.764;2022-09-09T07:48:54;17.80;1.40
2174;DHT22;1093;51.424;11.764;2022-09-09T07:51:23;17.80;1.40
2174;DHT22;1093;51.424;11.764;2022-09-09T07:53:54;17.90;1.40
2174;DHT22;1093;51.424;11.764;2022-09-09T07:56:21;18.10;1.40
2174;DHT22;1093;51.424;11.764;2022-09-09T07:58:49;18.20;1.40
2174;DHT22;1093;51.424;11.764;2022-09-09T08:01:19;18.40;1.40
2174;DHT22;1093;51.424;11.764;2022-09-09T08:03:51;18.50;1.40
2174;DHT22;1093;51.424;11.764;2022-09-09T08:06:18;18.60;1.40
2174;DHT22;1093;51.424;11.764;2022-09-09T08:08:49;18.70;1.40
2174;DHT22;1093;51.424;11.764;2022-09-09T08:11:18;18.80;1.40
2174;DHT22;1093;51.424;11.764;2022-09-09T08:13:45;18.90;1.40
2174;DHT22;1093;51.424;11.764;2022-09-09T08:16:15;19.00;1.40
2174;DHT22;1093;51.424;11.764;2022-09-09T08:18:42;19.20;1.40
2174;DHT22;1093;51.424;11.764;2022-09-09T08:21:11;19.30;1.40
2174;DHT22;1093;51.424;11.764;2022-09-09T08:23:39;19.40;1.40
2174;DHT22;1093;51.424;11.764;2022-09-09T08:26:09;19.50;1.40
2174;DHT22;1093;51.424;11.764;2022-09-09T08:28:38;19.50;1.40
2174;DHT22;1093;51.424;11.764;2022-09-09T08:31:07;19.50;1.40
2174;DHT22;1093;51.424;11.764;2022-09-09T08:33:34;19.50;1.40
2174;DHT22;1093;51.424;11.764;2022-09-09T08:36:03;19.60;1.40
2174;DHT22;1093;51.424;11.764;2022-09-09T08:38:30;19.70;1.40
2174;DHT22;1093;51.424;11.764;2022-09-09T08:41:02;19.80;1.40
2174;DHT22;1093;51.424;11.764;2022-09-09T08:43:31;19.90;1.40
2174;DHT22;1093;51.424;11.764;2022-09-09T08:46:04;20.00;1.40
2174;DHT22;1093;51.424;11.764;2022-09-09T08:48:46;20.20;1.40
2174;DHT22;1093;51.424;11.764;2022-09-09T08:51:14;20.40;1.40
2174;DHT22;1093;51.424;11.764;2022-09-09T08:53:46;20.60;1.40
2174;DHT22;1093;51.424;11.764;2022-09-09T08:56:17;20.70;1.40
2174;DHT22;1093;51.424;11.764;2022-09-09T08:58:47;20.90;1.40
2174;DHT22;1093;51.424;11.764;2022-09-09T09:01:35;21.10;1.40
2174;DHT22;1093;51.424;11.764;2022-09-09T09:04:10;21.30;1.40
2174;DHT22;1093;51.424;11.764;2022-09-09T09:06:48;21.50;1.40
2174;DHT22;1093;51.424;11.764;2022-09-09T09:09:22;21.70;1.40
2174;DHT22;1093;51.424;11.764;2022-09-09T09:11:53;21.80;1.40
2174;DHT22;1093;51.424;11.764;2022-09-09T09:14:22;21.80;1.40
2174;DHT22;1093;51.424;11.764;2022-09-09T09:16:54;21.90;1.40
2174;DHT22;1093;51.424;11.764;2022-09-09T09:19:23;22.00;1.40
2174;DHT22;1093;51.424;11.764;2022-09-09T09:21:54;22.20;1.40
2174;DHT22;1093;51.424;11.764;2022-09-09T09:24:27;22.20;1.40
2174;DHT22;1093;51.424;11.764;2022-09-09T09:26:58;22.20;1.40
2174;DHT22;1093;51.424;11.764;2022-09-09T09:29:26;22.30;1.40
2174;DHT22;1093;51.424;11.764;2022-09-09T09:31:56;22.40;1.40
2174;DHT22;1093;51.424;11.764;2022-09-09T09:34:26;22.40;1.40
2174;DHT22;1093;51.424;11.764;2022-09-09T09:36:56;22.50;1.40
2174;DHT22;1093;51.424;11.764;2022-09-09T09:39:25;22.50;1.40
2174;DHT22;1093;51.424;11.764;2022-09-09T09:41:52;22.60;1.40
2174;DHT22;1093;51.424;11.764;2022-09-09T09:44:24;22.70;1.40
2174;DHT22;1093;51.424;11.764;2022-09-09T09:46:52;22.90;1.40
2174;DHT22;1093;51.424;11.764;2022-09-09T09:49:20;22.90;1.40
2174;DHT22;1093;51.424;11.764;2022-09-09T09:51:46;22.80;1.40
2174;DHT22;1093;51.424;11.764;2022-09-09T09:54:18;22.70;1.40
2174;DHT22;1093;51.424;11.764;2022-09-09T09:56:49;22.90;1.40
2174;DHT22;1093;51.424;11.764;2022-09-09T09:59:22;22.80;1.40
2174;DHT22;1093;51.424;11.764;2022-09-09T10:01:49;22.70;1.40
2174;DHT22;1093;51.424;11.764;2022-09-09T10:04:18;22.60;1.40
2174;DHT22;1093;51.424;11.764;2022-09-09T10:06:48;22.70;1.40
2174;DHT22;1093;51.424;11.764;2022-09-09T10:09:22;22.60;1.40
2174;DHT22;1093;51.424;11.764;2022-09-09T10:11:55;22.70;1.40
2174;DHT22;1093;51.424;11.764;2022-09-09T10:14:32;22.90;1.40
2174;DHT22;1093;51.424;11.764;2022-09-09T10:17:09;22.90;1.40
2174;DHT22;1093;51.424;11.764;2022-09-09T10:19:41;22.90;1.40
2174;DHT22;1093;51.424;11.764;2022-09-09T10:22:20;22.80;1.40
2174;DHT22;1093;51.424;11.764;2022-09-09T10:25:09;22.70;1.40
2174;DHT22;1093;51.424;11.764;2022-09-09T10:27:50;22.60;1.40
2174;DHT22;1093;51.424;11.764;2022-09-09T10:30:22;22.60;1.40
2174;DHT22;1093;51.424;11.764;2022-09-09T10:32:56;22.70;1.40
2174;DHT22;1093;51.424;11.764;2022-09-09T10:35:31;22.60;1.40
2174;DHT22;1093;51.424;11.764;2022-09-09T10:38:22;22.70;1.40
2174;DHT22;1093;51.424;11.764;2022-09-09T10:41:05;22.80;1.40
2174;DHT22;1093;51.424;11.764;2022-09-09T10:43:57;23.00;1.40
2174;DHT22;1093;51.424;11.764;2022-09-09T10:46:40;23.20;1.40
2174;DHT22;1093;51.424;11.764;2022-09-09T10:49:19;23.30;1.40
2174;DHT22;1093;51.424;11.764;2022-09-09T10:51:53;23.40;1.40
2174;DHT22;1093;51.424;11.764;2022-09-09T10:54:34;23.40;1.40
2174;DHT22;1093;51.424;11.764;2022-09-09T10:57:10;23.40;1.40
2174;DHT22;1093;51.424;11.764;2022-09-09T10:59:42;23.50;1.40
2174;DHT22;1093;51.424;11.764;2022-09-09T11:02:15;23.50;1.40
2174;DHT22;1093;51.424;11.764;2022-09-09T11:04:48;23.60;1.40
2174;DHT22;1093;51.424;11.764;2022-09-09T11:07:25;23.60;1.40
2174;DHT22;1093;51.424;11.764;2022-09-09T11:09:59;23.70;1.40
2174;DHT22;1093;51.424;11.764;2022-09-09T11:12:28;23.90;1.40
2174;DHT22;1093;51.424;11.764;2022-09-09T11:15:01;24.00;1.40
2174;DHT22;1093;51.424;11.764;2022-09-09T11:17:35;23.90;1.40
2174;DHT22;1093;51.424;11.764;2022-09-09T11:20:05;23.90;1.40
2174;DHT22;1093;51.424;11.764;2022-09-09T11:22:36;24.00;1.40
2174;DHT22;1093;51.424;11.764;2022-09-09T11:25:13;23.80;1.40
2174;DHT22;1093;51.424;11.764;2022-09-09T11:27:49;23.80;1.40
2174;DHT22;1093;51.424;11.764;2022-09-09T11:30:19;23.80;1.40
2174;DHT22;1093;51.424;11.764;2022-09-09T11:33:07;23.90;1.40
2174;DHT22;1093;51.424;11.764;2022-09-09T11:35:47;23.80;1.40
2174;DHT22;1093;51.424;11.764;2022-09-09T11:38:25;23.80;1.40
2174;DHT22;1093;51.424;11.764;2022-09-09T11:40:59;23.70;1.40
2174;DHT22;1093;51.424;11.764;2022-09-09T11:43:30;23.70;1.40
2174;DHT22;1093;51.424;11.764;2022-09-09T11:45:59;23.80;1.40
2174;DHT22;1093;51.424;11.764;2022-09-09T11:48:33;23.80;1.40
2174;DHT22;1093;51.424;11.764;2022-09-09T11:51:03;23.80;1.40
2174;DHT22;1093;51.424;11.764;2022-09-09T11:53:31;23.90;1.40
2174;DHT22;1093;51.424;11.764;2022-09-09T11:56:11;23.90;1.40
2174;DHT22;1093;51.424;11.764;2022-09-09T11:58:43;23.90;1.40
2174;DHT22;1093;51.424;11.764;2022-09-09T12:01:27;23.90;1.40
2174;DHT22;1093;51.424;11.764;2022-09-09T12:04:10;24.00;1.40
2174;DHT22;1093;51.424;11.764;2022-09-09T12:06:43;23.90;1.40
2174;DHT22;1093;51.424;11.764;2022-09-09T12:09:18;24.00;1.40
2174;DHT22;1093;51.424;11.764;2022-09-09T12:11:47;23.90;1.40
2174;DHT22;1093;51.424;11.764;2022-09-09T12:14:22;24.00;1.40
2174;DHT22;1093;51.424;11.764;2022-09-09T12:16:50;24.00;1.40
2174;DHT22;1093;51.424;11.764;2022-09-09T12:19:19;23.90;1.40
2174;DHT22;1093;51.424;11.764;2022-09-09T12:21:54;23.90;1.40
2174;DHT22;1093;51.424;11.764;2022-09-09T12:24:30;23.80;1.40
2174;DHT22;1093;51.424;11.764;2022-09-09T12:27:06;23.70;1.40
2174;DHT22;1093;51.424;11.764;2022-09-09T12:29:41;23.80;1.40
2174;DHT22;1093;51.424;11.764;2022-09-09T12:32:12;23.80;1.40
2174;DHT22;1093;51.424;11.764;2022-09-09T12:34:44;23.80;1.40
2174;DHT22;1093;51.424;11.764;2022-09-09T12:37:17;23.70;1.40
2174;DHT22;1093;51.424;11.764;2022-09-09T12:39:50;23.70;1.40
2174;DHT22;1093;51.424;11.764;2022-09-09T12:42:22;23.70;1.40
2174;DHT22;1093;51.424;11.764;2022-09-09T12:44:57;23.70;1.40
2174;DHT22;1093;51.424;11.764;2022-09-09T12:47:34;23.80;1.40
2174;DHT22;1093;51.424;11.764;2022-09-09T12:50:04;23.80;1.40
2174;DHT22;1093;51.424;11.764;2022-09-09T12:52:32;23.70;1.40
2174;DHT22;1093;51.424;11.764;2022-09-09T12:55:02;23.80;1.40
2174;DHT22;1093;51.424;11.764;2022-09-09T12:57:35;23.80;1.40
2174;DHT22;1093;51.424;11.764;2022-09-09T13:00:08;23.90;1.40
2174;DHT22;1093;51.424;11.764;2022-09-09T13:02:47;23.80;1.40
2174;DHT22;1093;51.424;11.764;2022-09-09T13:05:18;23.90;1.40
2174;DHT22;1093;51.424;11.764;2022-09-09T13:07:45;24.00;1.40
2174;DHT22;1093;51.424;11.764;2022-09-09T13:10:14;24.00;1.40
2174;DHT22;1093;51.424;11.764;2022-09-09T13:12:43;24.10;1.40
2174;DHT22;1093;51.424;11.764;2022-09-09T13:15:19;24.10;1.40
2174;DHT22;1093;51.424;11.764;2022-09-09T13:17:53;24.20;1.40
2174;DHT22;1093;51.424;11.764;2022-09-09T13:20:21;24.30;1.40
2174;DHT22;1093;51.424;11.764;2022-09-09T13:22:49;24.30;1.40
2174;DHT22;1093;51.424;11.764;2022-09-09T13:25:20;24.40;1.40
2174;DHT22;1093;51.424;11.764;2022-09-09T13:27:56;24.50;1.40
2174;DHT22;1093;51.424;11.764;2022-09-09T13:30:25;24.60;1.40
2174;DHT22;1093;51.424;11.764;2022-09-09T13:33:19;24.60;1.40
2174;DHT22;1093;51.424;11.764;2022-09-09T13:35:49;24.50;1.40
2174;DHT22;1093;51.424;11.764;2022-09-09T13:38:17;24.50;1.40
2174;DHT22;1093;51.424;11.764;2022-09-09T13:40:53;24.50;1.40
2174;DHT22;1093;51.424;11.764;2022-09-09T13:43:25;24.50;1.40
2174;DHT22;1093;51.424;11.764;2022-09-09T13:45:54;24.60;1.40
2174;DHT22;1093;51.424;11.764;2022-09-09T13:48:21;24.70;1.40
2174;DHT22;1093;51.424;11.764;2022-09-09T13:50:54;24.70;1.40
2174;DHT22;1093;51.424;11.764;2022-09-09T13:53:21;24.80;1.40
2174;DHT22;1093;51.424;11.764;2022-09-09T13:55:48;24.80;1.40
2174;DHT22;1093;51.424;11.764;2022-09-09T13:58:16;24.90;1.40
2174;DHT22;1093;51.424;11.764;2022-09-09T14:00:46;24.90;1.40
2174;DHT22;1093;51.424;11.764;2022-09-09T14:03:13;25.10;1.40
2174;DHT22;1093;51.424;11.764;2022-09-09T14:05:40;25.10;1.40
2174;DHT22;1093;51.424;11.764;2022-09-09T14:08:14;25.10;1.40
2174;DHT22;1093;51.424;11.764;2022-09-09T14:10:41;25.20;1.40
2174;DHT22;1093;51.424;11.764;2022-09-09T14:13:08;25.10;1.40
2174;DHT22;1093;51.424;11.764;2022-09-09T14:15:35;25.20;1.40
2174;DHT22;1093;51.424;11.764;2022-09-09T14:18:04;25.20;1.40
2174;DHT22;1093;51.424;11.764;2022-09-09T14:20:31;25.20;1.40
2174;DHT22;1093;51.424;11.764;2022-09-09T14:22:58;25.20;1.40
2174;DHT22;1093;51.424;11.764;2022-09-09T14:25:24;25.20;1.40
2174;DHT22;1093;51.424;11.764;2022-09-09T14:27:51;25.20;1.40
2174;DHT22;1093;51.424;11.764;2022-09-09T14:30:18;25.20;1.40
2174;DHT22;1093;51.424;11.764;2022-09-09T14:32:45;25.20;1.40
2174;DHT22;1093;51.424;11.764;2022-09-09T14:35:13;25.30;1.40
2174;DHT22;1093;51.424;11.764;2022-09-09T14:37:40;25.20;1.40
2174;DHT22;1093;51.424;11.764;2022-09-09T14:40:08;25.20;1.40
2174;DHT22;1093;51.424;11.764;2022-09-09T14:42:34;25.30;1.40
2174;DHT22;1093;51.424;11.764;2022-09-09T14:45:01;25.30;1.40
2174;DHT22;1093;51.424;11.764;2022-09-09T14:47:28;25.40;1.40
2174;DHT22;1093;51.424;11.764;2022-09-09T14:49:55;25.30;1.40
2174;DHT22;1093;51.424;11.764;2022-09-09T14:52:24;25.40;1.40
2174;DHT22;1093;51.424;11.764;2022-09-09T14:54:51;25.40;1.40
2174;DHT22;1093;51.424;11.764;2022-09-09T14:57:18;25.40;1.40
2174;DHT22;1093;51.424;11.764;2022-09-09T14:59:44;25.50;1.40
2174;DHT22;1093;51.424;11.764;2022-09-09T15:02:11;25.40;1.40
2174;DHT22;1093;51.424;11.764;2022-09-09T15:04:39;25.40;1.40
2174;DHT22;1093;51.424;11.764;2022-09-09T15:07:06;25.30;1.40
2174;DHT22;1093;51.424;11.764;2022-09-09T15:09:34;25.30;1.40
2174;DHT22;1093;51.424;11.764;2022-09-09T15:12:02;25.40;1.40
2174;DHT22;1093;51.424;11.764;2022-09-09T15:14:30;25.40;1.40
2174;DHT22;1093;51.424;11.764;2022-09-09T15:16:57;25.30;1.40
2174;DHT22;1093;51.424;11.764;2022-09-09T15:19:23;25.30;1.40
2174;DHT22;1093;51.424;11.764;2022-09-09T15:21:50;25.30;1.40
2174;DHT22;1093;51.424;11.764;2022-09-09T15:24:17;25.50;1.40
2174;DHT22;1093;51.424;11.764;2022-09-09T15:26:46;25.40;1.40
2174;DHT22;1093;51.424;11.764;2022-09-09T15:29:13;25.30;1.40
2174;DHT22;1093;51.424;11.764;2022-09-09T15:31:39;25.30;1.40
2174;DHT22;1093;51.424;11.764;2022-09-09T15:34:07;25.30;1.40
2174;DHT22;1093;51.424;11.764;2022-09-09T15:36:35;25.30;1.40
2174;DHT22;1093;51.424;11.764;2022-09-09T15:39:04;25.30;1.40
2174;DHT22;1093;51.424;11.764;2022-09-09T15:41:31;25.20;1.40
2174;DHT22;1093;51.424;11.764;2022-09-09T15:44:00;25.20;1.40
2174;DHT22;1093;51.424;11.764;2022-09-09T15:46:29;25.10;1.40
2174;DHT22;1093;51.424;11.764;2022-09-09T15:48:58;25.00;1.40
2174;DHT22;1093;51.424;11.764;2022-09-09T15:51:29;25.00;1.40
2174;DHT22;1093;51.424;11.764;2022-09-09T15:53:57;24.90;1.40
2174;DHT22;1093;51.424;11.764;2022-09-09T15:56:25;24.90;1.40
2174;DHT22;1093;51.424;11.764;2022-09-09T15:58:54;24.80;1.40
2174;DHT22;1093;51.424;11.764;2022-09-09T16:01:24;24.80;1.40
2174;DHT22;1093;51.424;11.764;2022-09-09T16:03:50;24.70;1.40
2174;DHT22;1093;51.424;11.764;2022-09-09T16:06:18;24.70;1.40
2174;DHT22;1093;51.424;11.764;2022-09-09T16:08:47;24.70;1.40
2174;DHT22;1093;51.424;11.764;2022-09-09T16:11:17;24.50;1.40
2174;DHT22;1093;51.424;11.764;2022-09-09T16:13:46;24.40;1.40
2174;DHT22;1093;51.424;11.764;2022-09-09T16:16:14;24.40;1.40
2174;DHT22;1093;51.424;11.764;2022-09-09T16:18:45;24.30;1.40
2174;DHT22;1093;51.424;11.764;2022-09-09T16:21:15;24.20;1.40
2174;DHT22;1093;51.424;11.764;2022-09-09T16:23:42;24.20;1.40
2174;DHT22;1093;51.424;11.764;2022-09-09T16:26:11;24.10;1.40
2174;DHT22;1093;51.424;11.764;2022-09-09T16:28:38;24.00;1.40
2174;DHT22;1093;51.424;11.764;2022-09-09T16:31:06;23.90;1.40
2174;DHT22;1093;51.424;11.764;2022-09-09T16:33:33;23.80;1.40